Time;durP1;ratioP1;P1;durP2;ratioP2;P2;SDS_P1;SDS_P2;PMS_P1;PMS_P2;Temp;Humidity;BMP_temperature;BMP_pressure;BME280_temperature;BME280_humidity;BME280_pressure;Samples;Min_cycle;Max_cycle;Signal;HPM_P1;HPM_P2
2022/05/06 00:01:07;;;;;;;14.90;8.75;;;12.50;99.90;;;;;;5064162;28;20107;-82
2022/05/06 00:03:33;;;;;;;13.95;8.80;;;12.40;99.90;;;;;;5062082;28;20123;-85
2022/05/06 00:05:58;;;;;;;13.43;9.50;;;12.40;99.90;;;;;;5066741;28;20024;-84
2022/05/06 00:08:25;;;;;;;14.65;9.35;;;;;;;;;;5060821;28;20479;-81
2022/05/06 00:10:51;;;;;;;18.25;10.07;;;12.30;99.90;;;;;;5064280;28;20315;-80
2022/05/06 00:13:16;;;;;;;14.90;9.30;;;12.30;99.90;;;;;;5079176;28;20020;-84
2022/05/06 00:15:42;;;;;;;22.80;9.50;;;12.30;99.90;;;;;;5076803;28;20021;-81
2022/05/06 00:18:07;;;;;;;16.65;9.80;;;12.30;99.90;;;;;;5058714;28;20013;-82
2022/05/06 00:20:33;;;;;;;14.80;9.13;;;;;;;;;;5076839;28;20087;-83
2022/05/06 00:23:00;;;;;;;16.70;9.95;;;;;;;;;;5082183;28;20024;-84
2022/05/06 00:25:26;;;;;;;14.98;9.38;;;;;;;;;;5078377;28;20031;-81
2022/05/06 00:27:52;;;;;;;19.75;9.63;;;12.20;99.90;;;;;;5080308;28;20027;-82
2022/05/06 00:30:18;;;;;;;13.52;9.10;;;;;;;;;;5079061;28;20380;-83
2022/05/06 00:32:44;;;;;;;16.10;8.70;;;12.10;99.90;;;;;;5085324;28;20024;-81
2022/05/06 00:35:10;;;;;;;16.85;9.82;;;12.10;99.90;;;;;;5076301;28;20024;-82
2022/05/06 00:37:35;;;;;;;15.93;10.23;;;12.10;99.90;;;;;;5062389;28;20025;-84
2022/05/06 00:40:01;;;;;;;16.70;9.70;;;12.10;99.90;;;;;;5083779;28;20440;-83
2022/05/06 00:42:27;;;;;;;18.15;10.20;;;12.10;99.90;;;;;;5064622;28;20307;-82
2022/05/06 00:44:55;;;;;;;16.17;9.93;;;;;;;;;;5082500;28;20052;-84
2022/05/06 00:47:22;;;;;;;16.77;9.85;;;12.00;99.90;;;;;;5064783;28;20036;-84
2022/05/06 00:49:49;;;;;;;18.55;9.85;;;12.00;99.90;;;;;;5057585;28;20032;-84
2022/05/06 00:52:19;;;;;;;16.70;9.45;;;12.00;99.90;;;;;;5061407;28;20041;-81
2022/05/06 00:54:45;;;;;;;18.20;9.65;;;12.00;99.90;;;;;;5068748;28;20045;-82
2022/05/06 00:57:11;;;;;;;12.50;9.20;;;;;;;;;;5081445;28;20024;-83
2022/05/06 01:00:17;;;;;;;14.80;9.32;;;12.00;99.90;;;;;;5074643;28;20098;-81
2022/05/06 01:02:23;;;;;;;15.98;9.55;;;9.40;99.90;;;;;;5079263;28;20021;-82
2022/05/06 01:04:50;;;;;;;15.07;9.35;;;11.40;99.90;;;;;;5078354;28;20485;-81
2022/05/06 01:07:17;;;;;;;15.30;10.00;;;11.90;99.90;;;;;;5054457;28;20115;-83
2022/05/06 01:09:43;;;;;;;16.65;9.73;;;;;;;;;;5058753;28;20017;-82
2022/05/06 01:12:09;;;;;;;18.63;9.85;;;11.80;99.90;;;;;;5076990;28;20032;-86
2022/05/06 01:14:35;;;;;;;16.27;9.75;;;;;;;;;;5061859;28;20029;-79
2022/05/06 01:17:01;;;;;;;17.83;9.70;;;11.80;99.90;;;;;;5076415;28;20024;-85
2022/05/06 01:19:27;;;;;;;16.05;8.77;;;12.60;99.90;;;;;;5055597;28;20051;-82
2022/05/06 01:21:54;;;;;;;18.13;9.48;;;11.70;99.90;;;;;;5060761;28;20513;-84
2022/05/06 01:24:21;;;;;;;14.55;9.38;;;11.70;99.90;;;;;;5063174;28;20036;-82
2022/05/06 01:26:58;;;;;;;23.13;10.57;;;11.60;99.90;;;;;;5064939;28;20406;-83
2022/05/06 01:29:26;;;;;;;15.43;10.25;;;11.80;99.90;;;;;;5080176;28;20021;-81
2022/05/06 01:31:53;;;;;;;17.45;9.63;;;11.70;99.90;;;;;;5064383;28;20028;-82
2022/05/06 01:34:22;;;;;;;15.80;9.65;;;11.70;99.90;;;;;;5078932;28;20065;-83
2022/05/06 01:36:51;;;;;;;12.77;9.10;;;15.00;99.90;;;;;;5057096;28;20492;-81
2022/05/06 01:39:20;;;;;;;16.63;10.23;;;11.60;99.90;;;;;;5039835;28;20070;-85
2022/05/06 01:41:51;;;;;;;15.45;9.27;;;11.60;99.90;;;;;;5076705;28;20029;-81
2022/05/06 01:44:19;;;;;;;16.48;9.75;;;11.60;99.90;;;;;;5068144;28;20189;-82
2022/05/06 01:46:45;;;;;;;15.68;9.52;;;;;;;;;;5076965;28;20117;-83
2022/05/06 01:49:11;;;;;;;18.05;9.27;;;11.50;99.90;;;;;;5090164;28;20066;-85
2022/05/06 01:51:38;;;;;;;18.52;10.15;;;11.50;99.90;;;;;;5088427;28;20024;-81
2022/05/06 01:54:05;;;;;;;16.48;9.75;;;11.50;99.90;;;;;;5059990;28;20055;-83
2022/05/06 01:56:31;;;;;;;15.82;10.25;;;11.20;99.90;;;;;;5050436;28;20021;-80
2022/05/06 01:58:56;;;;;;;15.07;9.55;;;;;;;;;;5058783;28;20024;-83
2022/05/06 02:01:22;;;;;;;15.85;10.20;;;11.50;99.90;;;;;;5075321;28;20729;-82
2022/05/06 02:06:32;;;;;;;18.42;9.77;;;11.40;99.90;;;;;;5071329;28;20044;-83
2022/05/06 02:08:58;;;;;;;14.93;9.63;;;12.40;99.90;;;;;;5070571;28;20020;-79
2022/05/06 02:11:24;;;;;;;16.95;9.88;;;13.20;99.90;;;;;;5067123;28;20478;-83
2022/05/06 02:13:49;;;;;;;17.08;10.52;;;12.50;99.90;;;;;;5046064;28;20025;-83
2022/05/06 02:16:16;;;;;;;19.13;10.55;;;11.40;99.90;;;;;;5076984;28;20013;-83
2022/05/06 02:18:42;;;;;;;16.60;10.82;;;11.40;99.90;;;;;;5074242;28;20109;-84
2022/05/06 02:21:07;;;;;;;18.50;10.70;;;11.40;99.90;;;;;;5074436;28;20431;-83
2022/05/06 02:23:33;;;;;;;18.27;9.65;;;11.30;99.90;;;;;;5081408;28;20055;-84
2022/05/06 02:25:59;;;;;;;15.55;9.18;;;11.40;99.90;;;;;;5062011;28;20398;-82
2022/05/06 02:28:25;;;;;;;14.38;9.10;;;;;;;;;;5072953;28;20028;-82
2022/05/06 02:33:36;;;;;;;14.52;9.00;;;11.30;99.90;;;;;;5078094;28;20095;-82
2022/05/06 02:36:03;;;;;;;14.98;9.30;;;11.40;99.90;;;;;;5063043;28;20024;-83
2022/05/06 02:38:29;;;;;;;16.55;9.27;;;11.30;99.90;;;;;;5081225;28;20032;-85
2022/05/06 02:41:00;;;;;;;17.05;9.57;;;11.30;99.90;;;;;;5051743;28;20089;-80
2022/05/06 02:43:27;;;;;;;13.30;9.05;;;;;;;;;;5082143;28;20028;-81
2022/05/06 02:45:52;;;;;;;13.00;9.35;;;11.30;99.90;;;;;;5082199;28;20028;-83
2022/05/06 02:48:19;;;;;;;14.43;10.07;;;;;;;;;;5064149;28;20025;-82
2022/05/06 02:50:44;;;;;;;18.60;9.55;;;11.20;99.90;;;;;;5064906;28;20047;-83
2022/05/06 02:53:10;;;;;;;14.32;10.02;;;13.80;99.90;;;;;;5063354;28;20029;-82
2022/05/06 02:55:38;;;;;;;15.65;9.73;;;13.50;99.90;;;;;;5082856;28;20049;-82
2022/05/06 02:58:04;;;;;;;17.95;9.90;;;12.40;99.90;;;;;;5062744;28;20031;-87
2022/05/06 03:00:30;;;;;;;17.65;9.98;;;;;;;;;;5081789;28;20021;-83
2022/05/06 03:02:56;;;;;;;16.60;9.68;;;11.10;99.90;;;;;;5067382;28;20109;-83
2022/05/06 03:05:23;;;;;;;13.93;9.40;;;11.20;99.90;;;;;;5064336;28;20036;-84
2022/05/06 03:07:49;;;;;;;20.27;10.40;;;11.20;99.90;;;;;;5083333;28;20025;-83
2022/05/06 03:10:15;;;;;;;18.42;10.57;;;11.10;99.90;;;;;;5064569;28;20074;-83
2022/05/06 03:12:43;;;;;;;14.95;9.93;;;11.10;99.90;;;;;;5065126;28;20024;-83
2022/05/06 03:15:09;;;;;;;14.77;9.95;;;11.00;99.90;;;;;;5082543;28;20029;-84
2022/05/06 03:17:35;;;;;;;16.58;9.85;;;11.00;99.90;;;;;;5080789;28;20081;-80
2022/05/06 03:20:01;;;;;;;15.95;10.75;;;;;;;;;;5065122;28;20044;-84
2022/05/06 03:22:28;;;;;;;15.05;9.57;;;;;;;;;;5061227;28;20120;-84
2022/05/06 03:24:53;;;;;;;13.65;9.32;;;11.00;99.90;;;;;;5050516;28;20029;-83
2022/05/06 03:30:05;;;;;;;16.38;10.95;;;11.00;99.90;;;;;;5075947;28;20103;-81
2022/05/06 03:32:32;;;;;;;14.38;9.70;;;10.90;99.90;;;;;;5053682;28;20029;-84
2022/05/06 03:34:58;;;;;;;15.70;10.43;;;10.90;99.90;;;;;;5059966;28;20029;-82
2022/05/06 03:37:25;;;;;;;17.10;10.15;;;10.90;99.90;;;;;;5045475;28;20029;-83
2022/05/06 03:39:51;;;;;;;17.02;10.07;;;;;;;;;;5065920;28;20187;-81
2022/05/06 03:42:16;;;;;;;14.65;9.60;;;10.90;99.90;;;;;;5081867;28;20323;-82
2022/05/06 03:44:42;;;;;;;15.40;9.98;;;10.80;99.90;;;;;;5082804;28;20026;-83
2022/05/06 03:47:07;;;;;;;18.00;10.57;;;10.80;99.90;;;;;;5064741;28;20078;-82
2022/05/06 03:49:33;;;;;;;14.82;9.93;;;10.70;99.90;;;;;;5053350;28;20043;-83
2022/05/06 03:51:59;;;;;;;17.05;9.77;;;12.90;99.90;;;;;;5082545;28;20016;-83
2022/05/06 03:54:26;;;;;;;15.00;9.90;;;;;;;;;;5057384;28;20158;-83
2022/05/06 03:56:52;;;;;;;16.00;10.40;;;10.70;99.90;;;;;;5056828;28;20035;-84
2022/05/06 03:59:17;;;;;;;17.25;10.05;;;11.50;99.90;;;;;;5075949;28;20021;-82
2022/05/06 04:01:43;;;;;;;16.23;10.30;;;;;;;;;;5057208;28;20031;-84
2022/05/06 04:04:09;;;;;;;16.23;10.38;;;10.60;99.90;;;;;;5056807;28;20030;-82
2022/05/06 04:06:35;;;;;;;17.10;9.35;;;;;;;;;;5058452;28;20115;-83
2022/05/06 04:09:01;;;;;;;15.43;9.35;;;;;;;;;;5080808;28;20463;-84
2022/05/06 04:11:27;;;;;;;13.10;8.52;;;;;;;;;;5075430;28;20029;-82
2022/05/06 04:13:53;;;;;;;15.20;9.50;;;;;;;;;;5079655;28;20025;-83
2022/05/06 04:16:19;;;;;;;16.60;9.68;;;;;;;;;;5080734;28;20016;-81
2022/05/06 04:18:45;;;;;;;16.45;9.27;;;;;;;;;;5080480;28;20028;-83
2022/05/06 04:23:55;;;;;;;14.25;9.60;;;10.50;99.90;;;;;;5084306;28;20043;-83
2022/05/06 04:26:21;;;;;;;15.75;9.93;;;;;;;;;;5079363;28;20025;-85
2022/05/06 04:28:46;;;;;;;16.38;10.48;;;10.50;99.90;;;;;;5070933;28;20024;-83
2022/05/06 04:31:12;;;;;;;15.93;9.80;;;;;;;;;;5064166;28;20075;-84
2022/05/06 04:33:39;;;;;;;14.88;10.35;;;10.40;99.90;;;;;;5088252;28;20052;-86
2022/05/06 04:36:06;;;;;;;17.65;9.95;;;10.30;99.90;;;;;;5070914;28;20032;-81
2022/05/06 04:38:32;;;;;;;14.45;9.73;;;10.40;99.90;;;;;;5064803;28;20027;-85
2022/05/06 04:40:58;;;;;;;15.38;9.90;;;10.40;99.90;;;;;;5064558;28;20028;-82
2022/05/06 04:43:25;;;;;;;15.27;9.73;;;10.40;99.90;;;;;;5083759;28;20059;-84
2022/05/06 04:45:51;;;;;;;16.58;9.68;;;10.40;99.90;;;;;;5080047;28;20028;-84
2022/05/06 04:48:18;;;;;;;18.33;9.98;;;;;;;;;;5064593;28;20025;-84
2022/05/06 04:50:44;;;;;;;14.05;9.52;;;;;;;;;;5063228;28;20032;-81
2022/05/06 04:53:11;;;;;;;16.35;9.77;;;;;;;;;;5077212;28;20033;-80
2022/05/06 04:55:38;;;;;;;15.23;9.63;;;10.50;99.90;;;;;;5062524;28;20027;-82
2022/05/06 04:58:05;;;;;;;15.93;9.82;;;;;;;;;;5082353;28;20029;-84
2022/05/06 05:00:31;;;;;;;18.48;10.00;;;;;;;;;;5065970;28;20024;-83
2022/05/06 05:02:58;;;;;;;17.88;10.05;;;10.50;99.90;;;;;;5071757;28;20114;-85
2022/05/06 05:05:27;;;;;;;14.50;9.48;;;;;;;;;;5083135;28;20005;-81
2022/05/06 05:07:56;;;;;;;18.65;10.52;;;;;;;;;;5093537;28;20032;-84
2022/05/06 05:10:22;;;;;;;16.85;10.45;;;;;;;;;;5076129;28;20008;-86
2022/05/06 05:12:48;;;;;;;15.98;10.10;;;10.50;99.90;;;;;;5076101;28;20028;-86
2022/05/06 05:15:17;;;;;;;18.48;10.57;;;10.60;99.90;;;;;;5069439;28;20020;-83
2022/05/06 05:17:44;;;;;;;15.98;10.15;;;10.80;99.90;;;;;;5095074;28;20008;-86
2022/05/06 05:20:11;;;;;;;14.35;9.60;;;10.70;99.90;;;;;;5097892;28;20021;-87
2022/05/06 05:22:37;;;;;;;18.33;10.18;;;;;;;;;;5097852;28;20267;-83
2022/05/06 05:25:06;;;;;;;17.95;9.63;;;11.00;99.90;;;;;;5097614;28;20255;-83
2022/05/06 05:27:33;;;;;;;16.38;9.70;;;11.00;99.90;;;;;;5091568;28;20036;-85
2022/05/06 05:29:59;;;;;;;18.40;9.98;;;11.30;99.90;;;;;;5098009;28;20033;-86
2022/05/06 05:32:26;;;;;;;12.90;8.70;;;11.30;99.90;;;;;;5080196;28;20482;-86
2022/05/06 05:34:52;;;;;;;12.43;8.52;;;;;;;;;;5080381;28;20044;-82
2022/05/06 05:37:17;;;;;;;14.48;8.23;;;;;;;;;;5072794;28;20013;-85
2022/05/06 05:39:44;;;;;;;13.63;8.25;;;13.30;99.90;;;;;;5061544;28;20033;-87
2022/05/06 05:42:10;;;;;;;17.90;9.15;;;14.30;99.90;;;;;;5065180;28;20059;-84
2022/05/06 05:50:08;;;;;;;14.38;8.50;;;;;;;;;;5054884;28;20032;-85
2022/05/06 05:52:33;;;;;;;16.38;7.93;;;14.10;99.90;;;;;;5095995;28;20035;-84
2022/05/06 05:54:59;;;;;;;14.25;7.70;;;14.10;99.90;;;;;;5095388;28;20252;-83
2022/05/06 05:57:25;;;;;;;13.57;8.25;;;14.30;99.90;;;;;;5077156;28;20032;-83
2022/05/06 05:59:50;;;;;;;11.70;8.15;;;13.80;99.90;;;;;;5075760;28;20051;-83
2022/05/06 06:02:17;;;;;;;13.38;8.27;;;14.10;99.90;;;;;;5075627;28;20012;-84
2022/05/06 06:04:43;;;;;;;13.80;8.30;;;;;;;;;;5059122;28;20024;-81
2022/05/06 06:07:09;;;;;;;14.98;8.30;;;;;;;;;;5080411;28;20389;-81
2022/05/06 06:09:36;;;;;;;15.90;8.20;;;;;;;;;;5063065;28;20063;-82
2022/05/06 06:12:02;;;;;;;16.52;8.77;;;13.70;99.90;;;;;;5076916;28;20059;-81
2022/05/06 06:14:28;;;;;;;14.05;8.65;;;;;;;;;;5080921;28;20020;-81
2022/05/06 06:16:54;;;;;;;13.43;8.80;;;;;;;;;;5062861;28;20028;-83
2022/05/06 06:19:20;;;;;;;12.43;8.68;;;;;;;;;;5064903;28;20267;-83
2022/05/06 06:21:46;;;;;;;11.40;7.72;;;;;;;;;;5066210;28;20027;-83
2022/05/06 06:24:12;;;;;;;14.48;7.85;;;;;;;;;;5082640;28;20020;-83
2022/05/06 06:26:39;;;;;;;10.32;7.68;;;;;;;;;;5071455;28;20025;-84
2022/05/06 06:29:05;;;;;;;12.52;7.75;;;;;;;;;;5073649;28;20036;-82
2022/05/06 06:31:32;;;;;;;14.00;7.28;;;;;;;;;;5088461;28;20043;-82
2022/05/06 06:34:01;;;;;;;13.85;7.55;;;13.80;99.90;;;;;;5072939;28;20020;-83
2022/05/06 06:36:27;;;;;;;10.65;7.00;;;;;;;;;;5060469;28;20024;-83
2022/05/06 06:38:53;;;;;;;12.75;6.88;;;;;;;;;;5084996;28;20036;-83
2022/05/06 06:41:20;;;;;;;10.27;7.05;;;14.00;99.90;;;;;;5084019;28;20029;-84
2022/05/06 06:43:46;;;;;;;10.93;7.22;;;14.00;99.90;;;;;;5078747;28;20056;-85
2022/05/06 06:46:12;;;;;;;10.68;6.45;;;14.20;99.90;;;;;;5080921;28;20031;-85
2022/05/06 06:48:39;;;;;;;10.63;6.68;;;;;;;;;;5080626;28;20029;-84
2022/05/06 06:51:05;;;;;;;9.13;5.68;;;14.30;99.90;;;;;;5059106;28;20120;-86
2022/05/06 06:53:31;;;;;;;12.70;6.25;;;;;;;;;;5043807;28;20052;-85
2022/05/06 06:55:57;;;;;;;11.63;5.97;;;;;;;;;;5062594;28;20036;-83
2022/05/06 06:58:25;;;;;;;9.57;5.43;;;;;;;;;;5062212;28;20035;-85
2022/05/06 07:00:50;;;;;;;7.55;5.20;;;;;;;;;;5080434;28;20020;-85
2022/05/06 07:03:17;;;;;;;8.38;5.70;;;;;;;;;;5078088;28;20074;-84
2022/05/06 07:13:58;;;;;;;6.10;3.72;;;15.40;99.90;;;;;;5082967;28;20063;-86
2022/05/06 07:16:26;;;;;;;13.50;4.43;;;;;;;;;;5063984;28;20033;-85
2022/05/06 07:18:52;;;;;;;7.80;3.90;;;15.70;99.90;;;;;;5069462;28;20024;-84
2022/05/06 07:21:17;;;;;;;6.82;3.38;;;15.90;99.90;;;;;;5064103;28;20084;-85
2022/05/06 07:23:43;;;;;;;5.85;3.40;;;;;;;;;;5080518;28;20028;-84
2022/05/06 07:26:10;;;;;;;6.38;3.33;;;;;;;;;;5082775;28;20017;-84
2022/05/06 07:28:36;;;;;;;4.93;3.13;;;;;;;;;;5080731;28;20028;-83
2022/05/06 07:31:02;;;;;;;6.80;3.20;;;;;;;;;;5062680;28;20024;-85
2022/05/06 07:33:27;;;;;;;6.72;2.70;;;16.40;99.90;;;;;;5080168;28;20025;-86
2022/05/06 07:35:53;;;;;;;6.82;2.90;;;16.50;99.90;;;;;;5060744;28;20127;-86
2022/05/06 07:38:19;;;;;;;7.28;2.78;;;16.60;99.60;;;;;;5069392;28;20474;-84
2022/05/06 07:40:44;;;;;;;5.95;3.05;;;16.70;99.00;;;;;;5071386;28;20056;-84
2022/05/06 07:43:10;;;;;;;8.48;2.75;;;16.70;99.00;;;;;;5066436;28;20043;-85
2022/05/06 07:45:36;;;;;;;5.85;2.90;;;16.80;99.00;;;;;;5085145;28;20033;-84
2022/05/06 07:48:04;;;;;;;8.85;4.47;;;17.00;98.40;;;;;;5067418;28;20115;-83
2022/05/06 07:50:31;;;;;;;5.70;2.83;;;;;;;;;;5083956;28;20036;-87
2022/05/06 07:52:58;;;;;;;3.97;2.88;;;17.10;97.70;;;;;;5083742;28;20030;-82
2022/05/06 07:55:24;;;;;;;5.47;2.85;;;;;;;;;;5066851;28;20569;-83
2022/05/06 07:57:50;;;;;;;3.45;2.03;;;17.30;97.70;;;;;;5085125;28;20119;-83
2022/05/06 08:00:19;;;;;;;3.50;2.10;;;17.40;95.40;;;;;;5057296;28;20028;-82
2022/05/06 08:05:32;;;;;;;5.68;2.35;;;17.60;94.40;;;;;;5078292;28;20178;-84
2022/05/06 08:07:58;;;;;;;6.28;2.45;;;17.80;93.60;;;;;;5063530;28;20020;-85
2022/05/06 08:10:24;;;;;;;3.95;2.20;;;;;;;;;;5065907;28;20056;-84
2022/05/06 08:12:50;;;;;;;9.18;2.40;;;;;;;;;;5067071;28;20074;-83
2022/05/06 08:15:16;;;;;;;4.95;2.33;;;;;;;;;;5084652;28;20028;-82
2022/05/06 08:17:42;;;;;;;5.82;1.92;;;;;;;;;;5066315;28;20098;-84
2022/05/06 08:20:08;;;;;;;5.20;2.20;;;18.20;91.60;;;;;;5065702;28;20027;-84
2022/05/06 08:22:36;;;;;;;6.60;2.45;;;18.20;90.50;;;;;;5065890;28;20029;-83
2022/05/06 08:25:06;;;;;;;4.30;1.83;;;18.30;90.30;;;;;;5062398;28;20056;-84
2022/05/06 08:27:42;;;;;;;5.28;1.48;;;18.30;87.80;;;;;;5072436;28;20071;-85
2022/05/06 08:30:12;;;;;;;4.80;1.75;;;18.50;85.30;;;;;;5084294;28;20039;-82
2022/05/06 08:32:39;;;;;;;8.65;1.90;;;18.60;85.70;;;;;;5066143;28;20027;-84
2022/05/06 08:35:05;;;;;;;4.53;1.70;;;19.70;86.80;;;;;;5071443;28;20020;-83
2022/05/06 08:37:45;;;;;;;4.07;1.90;;;18.70;83.70;;;;;;5078736;28;20031;-84
2022/05/06 08:40:18;;;;;;;5.35;1.67;;;18.90;82.10;;;;;;5084295;28;20032;-83
2022/05/06 08:42:45;;;;;;;5.53;1.90;;;;;;;;;;5063570;28;20036;-84
2022/05/06 08:50:53;;;;;;;5.97;1.95;;;19.00;75.40;;;;;;5083127;28;20397;-83
2022/05/06 08:53:22;;;;;;;3.88;1.80;;;19.10;75.20;;;;;;5081492;28;20024;-84
2022/05/06 08:55:49;;;;;;;4.85;1.90;;;19.10;74.30;;;;;;5076212;28;20036;-84
2022/05/06 08:58:16;;;;;;;2.83;2.03;;;19.10;73.20;;;;;;5073324;28;20024;-83
2022/05/06 09:00:42;;;;;;;5.32;2.25;;;19.10;72.30;;;;;;5065711;28;20032;-84
2022/05/06 09:03:08;;;;;;;3.55;1.90;;;19.00;72.60;;;;;;5064094;28;20024;-83
2022/05/06 09:05:58;;;;;;;5.35;1.95;;;19.10;72.80;;;;;;5084385;28;20036;-84
2022/05/06 09:08:41;;;;;;;3.17;1.48;;;19.40;71.00;;;;;;5065661;28;20028;-81
2022/05/06 09:11:11;;;;;;;4.55;1.85;;;;;;;;;;5055492;28;20016;-83
2022/05/06 09:13:58;;;;;;;7.00;2.05;;;19.50;69.40;;;;;;5062233;28;20025;-82
2022/05/06 09:16:41;;;;;;;3.83;1.63;;;19.60;69.00;;;;;;5064427;28;20056;-85
2022/05/06 09:19:16;;;;;;;2.85;1.80;;;19.50;69.40;;;;;;5076872;28;20538;-83
2022/05/06 09:22:03;;;;;;;3.38;1.55;;;19.90;69.10;;;;;;5066440;28;20017;-83
2022/05/06 09:24:30;;;;;;;4.80;1.67;;;20.10;67.00;;;;;;5056369;28;20028;-83
2022/05/06 09:27:12;;;;;;;3.67;1.50;;;20.10;65.80;;;;;;5068174;28;20088;-84
2022/05/06 09:29:46;;;;;;;5.32;1.88;;;20.00;66.10;;;;;;5066627;28;20031;-83
2022/05/06 09:32:17;;;;;;;3.78;1.80;;;20.20;65.90;;;;;;5076377;28;20021;-84
2022/05/06 09:34:45;;;;;;;4.95;1.70;;;20.20;64.70;;;;;;5075137;28;20021;-84
2022/05/06 09:37:10;;;;;;;5.35;2.38;;;20.20;65.10;;;;;;5055584;28;20074;-84
2022/05/06 09:39:40;;;;;;;5.38;2.25;;;;;;;;;;5056731;28;20025;-86
2022/05/06 09:42:06;;;;;;;4.50;1.60;;;19.90;65.00;;;;;;5071142;28;20032;-81
2022/05/06 09:44:33;;;;;;;3.65;1.83;;;20.00;65.20;;;;;;5049327;28;20479;-83
2022/05/06 09:47:12;;;;;;;3.47;1.60;;;21.30;66.40;;;;;;5074364;28;20482;-83
2022/05/06 09:49:42;;;;;;;2.47;1.40;;;20.10;65.60;;;;;;5060908;28;20016;-83
2022/05/06 09:52:13;;;;;;;5.00;1.55;;;20.10;65.70;;;;;;5045794;28;20372;-82
2022/05/06 09:54:44;;;;;;;3.28;1.58;;;20.30;64.90;;;;;;5058461;28;20109;-83
2022/05/06 09:57:10;;;;;;;;;;;20.20;64.40;;;;;;5080386;28;20076;-81
2022/05/06 09:59:36;;;;;;;4.47;1.92;;;20.30;64.50;;;;;;5076598;28;19908;-83
2022/05/06 10:02:04;;;;;;;5.95;1.70;;;20.40;65.20;;;;;;5056235;28;20023;-85
2022/05/06 10:04:29;;;;;;;8.50;1.50;;;20.50;64.20;;;;;;5057388;28;20017;-82
2022/05/06 10:07:00;;;;;;;5.07;1.90;;;20.50;64.70;;;;;;5073350;28;20457;-83
2022/05/06 10:09:26;;;;;;;;;;;20.60;64.80;;;;;;5045568;28;20029;-82
2022/05/06 10:11:53;;;;;;;3.92;1.70;;;20.60;62.60;;;;;;5078610;28;19904;-82
2022/05/06 10:14:19;;;;;;;4.32;1.67;;;21.30;64.00;;;;;;5082056;28;20024;-83
2022/05/06 10:16:46;;;;;;;8.18;2.08;;;20.80;64.50;;;;;;5075007;28;20028;-81
2022/05/06 10:19:37;;;;;;;3.22;1.60;;;20.90;63.10;;;;;;5060748;28;20059;-79
2022/05/06 10:22:03;;;;;;;3.50;1.52;;;21.20;61.90;;;;;;5058199;28;20032;-82
2022/05/06 10:24:40;;;;;;;3.40;1.45;;;21.40;62.10;;;;;;5076440;28;20086;-82
2022/05/06 10:33:17;;;;;;;8.57;1.85;;;;;;;;;;5071529;28;20036;-80
2022/05/06 10:35:45;;;;;;;5.97;2.30;;;21.10;61.40;;;;;;5060584;28;20036;-85
2022/05/06 10:38:29;;;;;;;5.93;1.50;;;;;;;;;;5057194;28;20050;-85
2022/05/06 10:40:57;;;;;;;4.20;1.55;;;20.60;61.40;;;;;;5063662;28;20016;-82
2022/05/06 10:43:41;;;;;;;3.75;1.30;;;20.60;61.80;;;;;;5079991;28;20093;-84
2022/05/06 10:46:07;;;;;;;5.22;1.63;;;21.00;62.30;;;;;;5076809;28;20048;-83
2022/05/06 10:48:33;;;;;;;4.65;1.50;;;;;;;;;;5058357;28;20360;-82
2022/05/06 10:51:21;;;;;;;3.58;1.52;;;21.10;60.10;;;;;;5080095;28;20036;-81
2022/05/06 10:53:47;;;;;;;4.03;1.50;;;21.00;58.90;;;;;;5076212;28;20017;-82
2022/05/06 10:56:14;;;;;;;3.33;1.40;;;;;;;;;;5053459;28;20017;-85
2022/05/06 10:58:40;;;;;;;5.93;1.60;;;21.00;60.30;;;;;;5054790;28;20017;-83
2022/05/06 11:01:06;;;;;;;4.03;1.48;;;;;;;;;;5078319;28;20016;-82
2022/05/06 11:03:32;;;;;;;3.70;1.50;;;;;;;;;;5081004;28;20032;-80
2022/05/06 11:05:58;;;;;;;5.72;1.48;;;;;;;;;;5060827;28;20017;-83
2022/05/06 11:08:34;;;;;;;5.45;1.48;;;21.30;58.40;;;;;;5073839;28;20048;-83
2022/05/06 11:10:59;;;;;;;3.80;1.50;;;21.30;59.20;;;;;;5067002;28;20043;-84
2022/05/06 11:13:25;;;;;;;3.30;1.40;;;21.40;58.40;;;;;;5062076;28;20028;-81
2022/05/06 11:15:52;;;;;;;2.60;1.20;;;21.60;59.10;;;;;;5070202;28;20028;-81
2022/05/06 11:18:21;;;;;;;5.47;1.38;;;;;;;;;;5061990;28;20023;-82
2022/05/06 11:20:47;;;;;;;3.65;1.67;;;21.20;58.30;;;;;;5072172;28;20024;-81
2022/05/06 11:23:13;;;;;;;4.95;1.50;;;21.20;59.00;;;;;;5083072;28;20084;-82
2022/05/06 11:25:44;;;;;;;3.00;1.40;;;22.50;59.60;;;;;;5070494;28;20078;-80
2022/05/06 11:28:17;;;;;;;5.15;1.50;;;20.90;59.30;;;;;;5089360;28;20024;-80
2022/05/06 11:30:48;;;;;;;2.97;1.40;;;21.20;59.30;;;;;;5080277;28;20037;-79
2022/05/06 11:33:31;;;;;;;3.40;1.38;;;21.20;59.30;;;;;;5083233;28;20020;-82
2022/05/06 11:36:03;;;;;;;6.18;1.58;;;21.40;59.80;;;;;;5081836;28;20036;-81
2022/05/06 11:38:39;;;;;;;4.18;1.48;;;21.90;58.00;;;;;;5090202;28;20025;-84
2022/05/06 11:41:09;;;;;;;3.83;1.45;;;22.10;57.60;;;;;;5079690;28;20097;-81
2022/05/06 11:43:36;;;;;;;4.88;1.48;;;22.10;58.00;;;;;;5064238;28;20036;-82
2022/05/06 11:48:47;;;;;;;1.92;1.17;;;22.20;58.80;;;;;;5089248;28;20059;-83
2022/05/06 11:51:27;;;;;;;3.53;1.30;;;21.90;59.50;;;;;;5078917;28;20025;-82
2022/05/06 11:53:53;;;;;;;;;;;22.00;60.00;;;;;;5075256;28;20089;-81
2022/05/06 11:56:24;;;;;;;4.03;1.45;;;22.20;60.30;;;;;;5063079;28;20426;-81
2022/05/06 11:58:52;;;;;;;2.00;1.30;;;22.40;58.10;;;;;;5085376;28;20020;-81
2022/05/06 12:01:31;;;;;;;4.28;1.58;;;22.50;58.30;;;;;;5082879;28;20089;-83
2022/05/06 12:04:01;;;;;;;3.80;1.33;;;22.40;57.70;;;;;;5070603;28;20016;-80
2022/05/06 12:06:27;;;;;;;3.58;1.60;;;22.40;58.30;;;;;;5064138;28;20035;-79
2022/05/06 12:09:18;;;;;;;3.47;1.48;;;22.20;59.20;;;;;;5085176;28;20029;-81
2022/05/06 12:11:45;;;;;;;3.80;1.50;;;21.80;59.70;;;;;;5073571;28;20020;-81
2022/05/06 12:14:18;;;;;;;4.25;1.33;;;22.00;59.30;;;;;;5059547;28;20032;-83
2022/05/06 12:16:54;;;;;;;4.18;1.30;;;21.90;59.20;;;;;;5070099;28;20510;-81
2022/05/06 12:19:32;;;;;;;2.70;1.45;;;21.70;58.50;;;;;;5060831;28;20017;-82
2022/05/06 12:22:08;;;;;;;3.83;1.52;;;21.60;58.80;;;;;;5067855;28;20092;-81
2022/05/06 12:24:58;;;;;;;3.75;1.50;;;21.50;60.00;;;;;;5062395;28;20020;-82
2022/05/06 12:27:28;;;;;;;5.10;1.58;;;21.50;60.00;;;;;;5064042;28;20814;-82
2022/05/06 12:29:54;;;;;;;;;;;21.50;60.50;;;;;;5057064;28;20017;-83
2022/05/06 12:32:22;;;;;;;4.00;1.30;;;21.70;58.60;;;;;;5081744;28;19929;-81
2022/05/06 12:35:04;;;;;;;3.80;1.30;;;20.80;58.50;;;;;;5070896;28;20017;-84
2022/05/06 12:37:30;;;;;;;3.40;1.30;;;21.50;60.70;;;;;;5079956;28;20482;-81
2022/05/06 12:39:59;;;;;;;2.85;1.50;;;21.30;60.80;;;;;;5055496;28;20031;-82
2022/05/06 12:42:25;;;;;;;2.83;1.50;;;;;;;;;;5067543;28;20184;-82
2022/05/06 12:44:51;;;;;;;2.85;1.23;;;;;;;;;;5068062;28;20128;-81
2022/05/06 12:50:12;;;;;;;4.07;1.33;;;22.50;57.90;;;;;;5065286;28;20043;-79
2022/05/06 12:52:38;;;;;;;5.65;1.33;;;22.60;57.40;;;;;;5077380;28;20020;-81
2022/05/06 12:55:05;;;;;;;2.90;1.50;;;22.90;58.10;;;;;;5064090;28;20036;-81
2022/05/06 12:57:34;;;;;;;4.25;1.35;;;22.70;56.80;;;;;;5068413;28;20017;-83
2022/05/06 13:00:00;;;;;;;3.50;1.58;;;22.70;57.20;;;;;;5067166;28;20021;-83
2022/05/06 13:02:25;;;;;;;2.22;1.42;;;22.30;58.20;;;;;;5059446;28;20028;-85
2022/05/06 13:04:51;;;;;;;2.90;1.50;;;22.30;58.60;;;;;;5067688;28;20028;-82
2022/05/06 13:07:17;;;;;;;5.03;1.50;;;;;;;;;;5084556;28;20024;-84
2022/05/06 13:09:43;;;;;;;1.73;1.20;;;;;;;;;;5059514;28;20021;-84
2022/05/06 13:12:09;;;;;;;3.92;1.38;;;21.90;58.80;;;;;;5063462;28;20051;-82
2022/05/06 13:14:35;;;;;;;1.85;1.20;;;22.00;59.10;;;;;;5060717;28;20093;-81
2022/05/06 13:17:01;;;;;;;4.72;1.50;;;22.30;58.50;;;;;;5061332;28;20024;-83
2022/05/06 13:19:29;;;;;;;2.50;1.35;;;22.60;58.30;;;;;;5080728;28;20021;-82
2022/05/06 13:21:55;;;;;;;3.60;1.30;;;22.70;57.90;;;;;;5079186;28;20036;-84
2022/05/06 13:24:23;;;;;;;4.68;1.70;;;;;;;;;;5085582;28;20414;-85
2022/05/06 13:26:49;;;;;;;4.82;1.20;;;;;;;;;;5063825;28;20540;-82
2022/05/06 13:29:15;;;;;;;3.55;1.48;;;23.10;56.50;;;;;;5066221;28;20024;-81
2022/05/06 13:31:41;;;;;;;2.90;1.30;;;23.20;55.50;;;;;;5082994;28;20033;-83
2022/05/06 13:34:07;;;;;;;2.50;1.30;;;23.30;56.00;;;;;;5081236;28;20044;-82
2022/05/06 13:36:32;;;;;;;4.18;1.30;;;23.50;56.10;;;;;;5082191;28;20036;-83
2022/05/06 13:39:01;;;;;;;2.40;1.23;;;23.50;55.50;;;;;;5066937;28;20029;-82
2022/05/06 13:41:30;;;;;;;4.68;1.38;;;;;;;;;;5062480;28;20028;-82
2022/05/06 13:43:55;;;;;;;2.22;1.27;;;22.80;55.70;;;;;;5065973;28;20017;-83
2022/05/06 13:46:21;;;;;;;3.63;1.35;;;22.60;57.10;;;;;;5081372;28;20021;-83
2022/05/06 13:48:48;;;;;;;2.55;1.40;;;22.60;56.80;;;;;;5056715;28;20021;-84
2022/05/06 13:51:14;;;;;;;2.58;1.17;;;;;;;;;;5081935;28;20029;-84
2022/05/06 13:53:39;;;;;;;2.20;1.20;;;22.10;56.80;;;;;;5079637;28;20035;-84
2022/05/06 13:59:05;;;;;;;1.45;1.20;;;25.70;59.80;;;;;;5085001;28;20410;-82
2022/05/06 14:01:31;;;;;;;5.03;1.42;;;23.50;58.60;;;;;;5061998;28;20052;-82